Time;durP1;ratioP1;P1;durP2;ratioP2;P2;SDS_P1;SDS_P2;PMS_P1;PMS_P2;Temp;Humidity;BMP_temperature;BMP_pressure;BME280_temperature;BME280_humidity;BME280_pressure;Samples;Min_cycle;Max_cycle;Signal;HPM_P1;HPM_P2
2023/12/12 00:02:25;;;;;;;19.45;8.98;;;;;;;;;;5091366;28;20093;-66
2023/12/12 00:05:10;;;;;;;19.55;9.00;;;;;;;;;;5105219;28;20057;-66
2023/12/12 00:07:56;;;;;;;22.08;8.60;;;;;;;;;;5111548;28;20020;-66
2023/12/12 00:10:42;;;;;;;20.65;9.07;;;;;;;;;;5097255;28;20031;-66
2023/12/12 00:13:27;;;;;;;18.75;9.32;;;;;;;;;;5111688;28;20023;-66
2023/12/12 00:16:13;;;;;;;22.13;8.68;;;;;;;;;;5111818;28;20030;-66
2023/12/12 00:18:59;;;;;;;23.52;8.82;;;;;;;;;;5111879;28;20024;-66
2023/12/12 00:21:44;;;;;;;18.98;8.43;;;;;;;;;;5112106;28;20035;-66
2023/12/12 00:24:30;;;;;;;22.20;8.40;;;;;;;;;;5108450;28;20036;-66
2023/12/12 00:27:15;;;;;;;18.92;8.40;;;;;;;;;;5091681;28;20107;-66
2023/12/12 00:30:01;;;;;;;22.52;8.73;;;;;;;;;;5097412;28;20473;-66
2023/12/12 00:32:47;;;;;;;20.67;9.38;;;;;;;;;;5090983;28;20024;-66
2023/12/12 00:35:33;;;;;;;20.55;8.85;;;;;;;;;;5091156;28;20028;-66
2023/12/12 00:38:18;;;;;;;21.02;9.35;;;;;;;;;;5092379;28;20420;-66
2023/12/12 00:41:04;;;;;;;17.17;7.88;;;;;;;;;;5092193;28;20043;-66
2023/12/12 00:43:50;;;;;;;22.33;8.55;;;;;;;;;;5110312;28;20077;-66
2023/12/12 00:46:35;;;;;;;20.30;8.65;;;;;;;;;;5111214;28;20081;-66
2023/12/12 00:49:21;;;;;;;18.40;8.30;;;;;;;;;;5111659;28;20437;-66
2023/12/12 00:52:07;;;;;;;21.00;8.75;;;;;;;;;;5111086;28;20092;-66
2023/12/12 00:54:52;;;;;;;21.92;8.43;;;;;;;;;;5111479;28;20053;-66
2023/12/12 00:57:38;;;;;;;21.15;8.25;;;;;;;;;;5111397;28;20107;-66
2023/12/12 01:00:24;;;;;;;20.60;9.70;;;;;;;;;;5109049;28;20404;-66
2023/12/12 01:03:09;;;;;;;19.05;7.75;;;;;;;;;;5090935;28;20389;-66
2023/12/12 01:05:55;;;;;;;18.52;7.28;;;;;;;;;;5096576;28;20066;-66
2023/12/12 01:08:40;;;;;;;21.10;7.95;;;;;;;;;;5092031;28;20024;-66
2023/12/12 01:11:26;;;;;;;17.67;8.35;;;;;;;;;;5094686;28;20027;-66
2023/12/12 01:14:13;;;;;;;17.33;7.85;;;;;;;;;;5094340;28;20534;-66
2023/12/12 01:16:58;;;;;;;16.05;7.28;;;;;;;;;;5107420;28;20019;-66
2023/12/12 01:19:44;;;;;;;23.13;9.15;;;;;;;;;;5115374;28;20024;-66
2023/12/12 01:22:30;;;;;;;15.55;7.45;;;;;;;;;;5106725;28;20028;-66
2023/12/12 01:25:15;;;;;;;15.23;7.15;;;;;;;;;;5114734;28;20020;-66
2023/12/12 01:28:01;;;;;;;16.00;8.13;;;;;;;;;;5102335;28;20024;-66
2023/12/12 01:30:47;;;;;;;19.55;8.02;;;;;;;;;;5094489;28;20028;-66
2023/12/12 01:33:32;;;;;;;24.65;9.18;;;;;;;;;;5102962;28;20057;-66
2023/12/12 01:36:18;;;;;;;21.88;8.48;;;;;;;;;;5114914;28;20049;-66
2023/12/12 01:39:04;;;;;;;18.13;8.23;;;;;;;;;;5099655;28;20012;-66
2023/12/12 01:41:50;;;;;;;17.77;8.20;;;;;;;;;;5114599;28;20023;-66
2023/12/12 01:44:36;;;;;;;18.52;7.90;;;;;;;;;;5113814;28;20051;-66
2023/12/12 01:47:22;;;;;;;19.35;8.40;;;;;;;;;;5111543;28;20070;-66
2023/12/12 01:50:08;;;;;;;13.63;7.65;;;;;;;;;;5095128;28;20527;-66
2023/12/12 01:52:54;;;;;;;20.20;7.93;;;;;;;;;;5097111;28;20038;-66
2023/12/12 01:55:40;;;;;;;19.67;7.82;;;;;;;;;;5101322;28;20023;-66
2023/12/12 01:58:25;;;;;;;17.73;7.95;;;;;;;;;;5101007;28;20024;-66
2023/12/12 02:01:11;;;;;;;21.08;8.10;;;;;;;;;;5103233;28;20106;-66
2023/12/12 02:03:57;;;;;;;17.23;7.80;;;;;;;;;;5094726;28;20035;-66
2023/12/12 02:06:44;;;;;;;22.63;8.63;;;;;;;;;;5096154;28;20031;-66
2023/12/12 02:09:30;;;;;;;18.80;8.90;;;;;;;;;;5100992;28;20118;-66
2023/12/12 02:12:16;;;;;;;20.40;8.15;;;;;;;;;;5113650;28;20034;-66
2023/12/12 02:15:02;;;;;;;20.75;7.93;;;;;;;;;;5100305;28;20089;-66
2023/12/12 02:17:48;;;;;;;15.52;7.43;;;;;;;;;;5114324;28;20481;-66
2023/12/12 02:20:34;;;;;;;22.73;8.90;;;;;;;;;;5098186;28;20114;-66
2023/12/12 02:23:20;;;;;;;20.30;8.25;;;;;;;;;;5114174;28;20492;-66
2023/12/12 02:26:05;;;;;;;20.90;7.75;;;;;;;;;;5113154;28;20096;-66
2023/12/12 02:28:51;;;;;;;21.20;9.07;;;;;;;;;;5093427;28;20016;-66
2023/12/12 02:31:36;;;;;;;20.67;9.25;;;;;;;;;;5098041;28;20023;-66
2023/12/12 02:34:23;;;;;;;15.93;7.32;;;;;;;;;;5095707;28;20157;-66
2023/12/12 02:37:08;;;;;;;21.17;9.68;;;;;;;;;;5103464;28;20027;-66
2023/12/12 02:39:54;;;;;;;19.17;7.95;;;;;;;;;;5113405;28;20504;-66
2023/12/12 02:42:44;;;;;;;18.65;9.18;;;;;;;;;;5103548;28;20020;-66
2023/12/12 02:45:30;;;;;;;16.98;7.75;;;;;;;;;;5098860;28;20496;-66
2023/12/12 02:48:16;;;;;;;23.20;8.07;;;;;;;;;;5114604;28;20041;-66
2023/12/12 02:51:01;;;;;;;19.10;8.45;;;;;;;;;;5098729;28;20019;-66
2023/12/12 02:53:47;;;;;;;21.13;7.47;;;;;;;;;;5114651;28;20062;-66
2023/12/12 02:56:33;;;;;;;14.27;7.40;;;;;;;;;;5114574;28;20062;-66
2023/12/12 02:59:18;;;;;;;19.88;8.52;;;;;;;;;;5115291;28;20030;-66
2023/12/12 03:02:04;;;;;;;20.48;8.40;;;;;;;;;;5113579;28;20019;-66
2023/12/12 03:04:49;;;;;;;22.88;8.68;;;;;;;;;;5113464;28;20523;-66
2023/12/12 03:07:35;;;;;;;17.27;7.78;;;;;;;;;;5113750;28;20477;-66
2023/12/12 03:10:21;;;;;;;18.33;9.02;;;;;;;;;;5113631;28;20031;-66
2023/12/12 03:13:06;;;;;;;16.38;7.35;;;;;;;;;;5113872;28;20034;-66
2023/12/12 03:15:52;;;;;;;18.77;7.57;;;;;;;;;;5113660;28;20034;-66
2023/12/12 03:18:38;;;;;;;22.02;7.97;;;;;;;;;;5114023;28;20012;-67
2023/12/12 03:21:23;;;;;;;22.38;7.60;;;;;;;;;;5112233;28;20019;-66
2023/12/12 03:24:09;;;;;;;18.88;7.82;;;;;;;;;;5113229;28;20070;-66
2023/12/12 03:26:55;;;;;;;22.98;8.30;;;;;;;;;;5113449;28;20435;-66
2023/12/12 03:29:40;;;;;;;20.63;7.82;;;;;;;;;;5113997;28;20034;-67
2023/12/12 03:32:26;;;;;;;18.73;7.38;;;;;;;;;;5113522;28;20023;-66
2023/12/12 03:35:11;;;;;;;17.42;6.45;;;;;;;;;;5113148;28;20020;-66
2023/12/12 03:37:57;;;;;;;15.00;7.05;;;;;;;;;;5113730;28;20023;-67
2023/12/12 03:40:43;;;;;;;16.45;7.53;;;;;;;;;;5113586;28;20039;-66
2023/12/12 03:43:28;;;;;;;16.10;6.93;;;;;;;;;;5113938;28;20081;-66
2023/12/12 03:46:15;;;;;;;18.40;7.03;;;;;;;;;;5112935;28;20020;-66
2023/12/12 03:49:00;;;;;;;15.80;6.93;;;;;;;;;;5097575;28;20051;-66
2023/12/12 03:51:46;;;;;;;20.25;8.70;;;;;;;;;;5112888;28;20015;-66
2023/12/12 03:54:32;;;;;;;17.67;7.70;;;;;;;;;;5112795;28;20089;-66
2023/12/12 03:57:18;;;;;;;18.30;8.23;;;;;;;;;;5112320;28;20031;-66
2023/12/12 04:00:06;;;;;;;13.77;6.75;;;;;;;;;;5112130;28;20020;-66
2023/12/12 04:02:52;;;;;;;16.35;7.20;;;;;;;;;;5113568;28;20523;-66
2023/12/12 04:05:38;;;;;;;15.73;7.03;;;;;;;;;;5112689;28;20510;-66
2023/12/12 04:08:24;;;;;;;15.88;7.50;;;;;;;;;;5097646;28;20095;-66
2023/12/12 04:11:09;;;;;;;15.23;6.03;;;;;;;;;;5112357;28;20016;-66
2023/12/12 04:13:56;;;;;;;18.67;8.07;;;;;;;;;;5111708;28;20024;-66
2023/12/12 04:16:42;;;;;;;17.88;7.13;;;;;;;;;;5095675;28;20408;-66
2023/12/12 04:19:27;;;;;;;14.23;6.88;;;;;;;;;;5077768;28;20019;-66
2023/12/12 04:22:13;;;;;;;17.95;8.20;;;;;;;;;;5091783;28;20028;-66
2023/12/12 04:24:58;;;;;;;17.42;6.70;;;;;;;;;;5107528;28;20031;-66
2023/12/12 04:27:44;;;;;;;20.85;6.60;;;;;;;;;;5111580;28;20027;-66
2023/12/12 04:30:30;;;;;;;18.33;8.52;;;;;;;;;;5112498;28;20039;-66
2023/12/12 04:33:15;;;;;;;16.63;7.20;;;;;;;;;;5112055;28;20027;-66
2023/12/12 04:36:04;;;;;;;20.00;7.32;;;;;;;;;;5112300;28;20028;-66
2023/12/12 04:38:50;;;;;;;18.35;8.10;;;;;;;;;;5112804;28;20019;-66
2023/12/12 04:41:39;;;;;;;13.82;6.63;;;;;;;;;;5112159;28;20023;-66
2023/12/12 04:44:25;;;;;;;14.77;7.35;;;;;;;;;;5100115;28;20089;-66
2023/12/12 04:47:11;;;;;;;21.00;7.97;;;;;;;;;;5116488;28;20072;-66
2023/12/12 04:49:56;;;;;;;22.35;8.48;;;;;;;;;;5115670;28;20023;-66
2023/12/12 04:52:42;;;;;;;16.60;7.30;;;;;;;;;;5116191;28;20492;-66
2023/12/12 04:55:28;;;;;;;16.90;6.85;;;;;;;;;;5115439;28;20106;-66
2023/12/12 04:58:13;;;;;;;17.08;5.82;;;;;;;;;;5116363;28;20016;-66
2023/12/12 05:00:59;;;;;;;18.15;8.10;;;;;;;;;;5101411;28;20402;-66
2023/12/12 05:03:45;;;;;;;15.23;6.88;;;;;;;;;;5101198;28;20035;-66
2023/12/12 05:06:31;;;;;;;17.05;7.13;;;;;;;;;;5100532;28;20084;-66
2023/12/12 05:09:17;;;;;;;19.15;6.95;;;;;;;;;;5115145;28;20028;-66
2023/12/12 05:12:03;;;;;;;21.42;6.22;;;;;;;;;;5116496;28;20032;-66
2023/12/12 05:14:48;;;;;;;14.63;5.97;;;;;;;;;;5116649;28;20074;-66
2023/12/12 05:17:34;;;;;;;17.02;6.70;;;;;;;;;;5115577;28;20020;-66
2023/12/12 05:20:20;;;;;;;18.50;7.07;;;;;;;;;;5099754;28;20024;-66
2023/12/12 05:23:05;;;;;;;19.50;6.82;;;;;;;;;;5117084;28;20473;-66
2023/12/12 05:25:51;;;;;;;17.30;8.15;;;;;;;;;;5115875;28;20408;-66
2023/12/12 05:28:36;;;;;;;16.33;6.72;;;;;;;;;;5114892;28;20022;-66
2023/12/12 05:31:24;;;;;;;19.00;7.53;;;;;;;;;;5114995;28;20031;-66
2023/12/12 05:34:09;;;;;;;14.10;6.43;;;;;;;;;;5115296;28;20016;-66
2023/12/12 05:36:55;;;;;;;17.05;7.30;;;;;;;;;;5100777;28;20019;-66
2023/12/12 05:39:41;;;;;;;17.90;7.15;;;;;;;;;;5114634;28;20043;-66
2023/12/12 05:42:26;;;;;;;16.60;7.07;;;;;;;;;;5114913;28;20111;-66
2023/12/12 05:45:12;;;;;;;21.90;7.32;;;;;;;;;;5101123;28;20020;-66
2023/12/12 05:47:58;;;;;;;15.52;6.50;;;;;;;;;;5115011;28;20072;-66
2023/12/12 05:50:43;;;;;;;15.63;8.07;;;;;;;;;;5114573;28;20055;-66
2023/12/12 05:53:29;;;;;;;15.70;6.32;;;;;;;;;;5113915;28;20020;-66
2023/12/12 05:56:14;;;;;;;18.48;5.85;;;;;;;;;;5114531;28;20368;-66
2023/12/12 05:59:00;;;;;;;18.95;7.15;;;;;;;;;;5107456;28;20062;-66
2023/12/12 06:01:46;;;;;;;15.57;6.57;;;;;;;;;;5105937;28;20484;-66
2023/12/12 06:04:34;;;;;;;18.55;6.85;;;;;;;;;;5094805;28;20057;-66
2023/12/12 06:07:20;;;;;;;16.58;7.60;;;;;;;;;;5086489;28;20435;-66
2023/12/12 06:10:06;;;;;;;18.55;6.93;;;;;;;;;;5096871;28;20024;-66
2023/12/12 06:12:52;;;;;;;17.80;7.18;;;;;;;;;;5080105;28;20039;-67
2023/12/12 06:15:37;;;;;;;17.02;7.55;;;;;;;;;;5095170;28;20058;-66
2023/12/12 06:18:23;;;;;;;22.50;7.72;;;;;;;;;;5093306;28;20047;-66
2023/12/12 06:21:09;;;;;;;18.33;7.15;;;;;;;;;;5079488;28;20024;-66
2023/12/12 06:23:54;;;;;;;15.93;6.30;;;;;;;;;;5093753;28;20031;-67
2023/12/12 06:26:40;;;;;;;16.08;6.22;;;;;;;;;;5093697;28;20103;-66
2023/12/12 06:29:26;;;;;;;17.20;6.22;;;;;;;;;;5108566;28;20024;-66
2023/12/12 06:32:11;;;;;;;19.02;7.18;;;;;;;;;;5113948;28;20023;-66
2023/12/12 06:34:57;;;;;;;15.93;6.72;;;;;;;;;;5113843;28;20527;-66
2023/12/12 06:37:43;;;;;;;17.35;7.78;;;;;;;;;;5100327;28;20027;-66
2023/12/12 06:40:30;;;;;;;16.00;6.70;;;;;;;;;;5094059;28;20489;-66
2023/12/12 06:43:16;;;;;;;20.35;8.43;;;;;;;;;;5098819;28;20019;-66
2023/12/12 06:46:02;;;;;;;15.27;5.45;;;;;;;;;;5113254;28;20102;-66
2023/12/12 06:48:48;;;;;;;15.95;7.47;;;;;;;;;;5114486;28;20027;-66
2023/12/12 06:51:35;;;;;;;19.15;6.97;;;;;;;;;;5114935;28;20541;-66
2023/12/12 06:54:20;;;;;;;18.50;7.97;;;;;;;;;;5114370;28;20049;-66
2023/12/12 06:57:06;;;;;;;16.33;6.10;;;;;;;;;;5109586;28;20434;-67
2023/12/12 06:59:52;;;;;;;19.20;6.55;;;;;;;;;;5113198;28;20055;-66
2023/12/12 07:02:38;;;;;;;16.00;6.00;;;;;;;;;;5093853;28;20052;-66
2023/12/12 07:05:23;;;;;;;17.65;7.10;;;;;;;;;;5092957;28;20019;-66
2023/12/12 07:08:09;;;;;;;16.58;6.50;;;;;;;;;;5092895;28;20020;-66
2023/12/12 07:10:54;;;;;;;19.38;5.78;;;;;;;;;;5093416;28;20020;-66
2023/12/12 07:13:40;;;;;;;17.38;6.45;;;;;;;;;;5098459;28;20077;-66
2023/12/12 07:16:26;;;;;;;14.68;6.45;;;;;;;;;;5105765;28;20096;-66
2023/12/12 07:19:11;;;;;;;17.15;6.57;;;;;;;;;;5114358;28;20068;-66
2023/12/12 07:21:57;;;;;;;13.35;5.95;;;;;;;;;;5113567;28;20019;-66
2023/12/12 07:24:43;;;;;;;17.92;6.53;;;;;;;;;;5112603;28;20024;-66
2023/12/12 07:27:29;;;;;;;14.88;7.97;;;;;;;;;;5112719;28;20023;-66
2023/12/12 07:30:14;;;;;;;14.50;5.38;;;;;;;;;;5112972;28;20028;-66
2023/12/12 07:33:00;;;;;;;16.70;6.93;;;;;;;;;;5112536;28;20022;-66
2023/12/12 07:35:46;;;;;;;13.60;6.20;;;;;;;;;;5111255;28;20019;-66
2023/12/12 07:38:32;;;;;;;15.45;6.15;;;;;;;;;;5113386;28;20030;-66
2023/12/12 07:41:18;;;;;;;14.40;6.43;;;;;;;;;;5101478;28;20024;-66
2023/12/12 07:44:04;;;;;;;15.27;6.72;;;;;;;;;;5093176;28;20031;-66
2023/12/12 07:46:50;;;;;;;11.98;5.95;;;;;;;;;;5091139;28;20073;-66
2023/12/12 07:49:35;;;;;;;14.23;6.15;;;;;;;;;;5094843;28;20511;-66
2023/12/12 07:52:21;;;;;;;14.63;6.72;;;;;;;;;;5092625;28;20032;-66
2023/12/12 07:55:07;;;;;;;15.20;5.93;;;;;;;;;;5096472;28;20145;-66
2023/12/12 07:57:53;;;;;;;15.73;6.90;;;;;;;;;;5112281;28;20072;-67
2023/12/12 08:00:39;;;;;;;12.68;6.03;;;;;;;;;;5107561;28;20023;-66
2023/12/12 08:03:25;;;;;;;15.43;7.18;;;;;;;;;;5092231;28;20024;-67
2023/12/12 08:06:10;;;;;;;15.90;6.72;;;;;;;;;;5086124;28;20035;-67
2023/12/12 08:08:56;;;;;;;14.48;6.47;;;;;;;;;;5102860;28;20020;-68
2023/12/12 08:11:42;;;;;;;14.63;6.90;;;;;;;;;;5112219;28;20027;-67
2023/12/12 08:14:27;;;;;;;17.70;7.28;;;;;;;;;;5111693;28;20011;-67
2023/12/12 08:17:13;;;;;;;14.68;5.93;;;;;;;;;;5092797;28;20031;-68
2023/12/12 08:19:58;;;;;;;15.15;6.22;;;;;;;;;;5096541;28;20019;-67
2023/12/12 08:22:45;;;;;;;19.08;7.13;;;;;;;;;;5092621;28;20063;-67
2023/12/12 08:25:30;;;;;;;17.40;6.68;;;;;;;;;;5092827;28;20032;-67
2023/12/12 08:28:16;;;;;;;13.35;6.05;;;;;;;;;;5095067;28;20039;-68
2023/12/12 08:31:03;;;;;;;15.95;7.10;;;;;;;;;;5112703;28;20423;-67
2023/12/12 08:33:48;;;;;;;16.95;6.72;;;;;;;;;;5112441;28;20030;-67
2023/12/12 08:36:34;;;;;;;18.75;7.13;;;;;;;;;;5109547;28;20103;-67
2023/12/12 08:39:20;;;;;;;16.77;7.63;;;;;;;;;;5111775;28;20105;-67
2023/12/12 08:42:05;;;;;;;14.60;7.25;;;;;;;;;;5099402;28;20060;-67
2023/12/12 08:44:51;;;;;;;20.13;7.53;;;;;;;;;;5092385;28;20478;-67
2023/12/12 08:47:37;;;;;;;18.90;7.90;;;;;;;;;;5093574;28;20059;-67
2023/12/12 08:50:23;;;;;;;18.02;7.32;;;;;;;;;;5092431;28;20032;-67
2023/12/12 08:53:09;;;;;;;20.27;7.75;;;;;;;;;;5091031;28;20023;-67
2023/12/12 08:55:55;;;;;;;20.55;8.07;;;;;;;;;;5076978;28;20135;-67
2023/12/12 08:58:40;;;;;;;21.40;8.63;;;;;;;;;;5076107;28;20024;-66
2023/12/12 09:01:26;;;;;;;22.05;9.40;;;;;;;;;;5092280;28;20023;-66
2023/12/12 09:04:14;;;;;;;16.83;7.53;;;;;;;;;;5091218;28;20070;-66
2023/12/12 09:06:59;;;;;;;23.50;8.57;;;;;;;;;;5094484;28;20039;-66
2023/12/12 09:09:45;;;;;;;23.00;7.90;;;;;;;;;;5091054;28;20039;-66
2023/12/12 09:12:31;;;;;;;22.02;7.65;;;;;;;;;;5095430;28;20054;-66
2023/12/12 09:15:17;;;;;;;18.88;8.00;;;;;;;;;;5091364;28;20028;-66
2023/12/12 09:18:02;;;;;;;19.63;7.35;;;;;;;;;;5100389;28;20031;-66
2023/12/12 09:20:48;;;;;;;25.45;8.68;;;;;;;;;;5091402;28;20059;-66
2023/12/12 09:23:34;;;;;;;25.90;9.23;;;;;;;;;;5099291;28;20403;-66
2023/12/12 09:26:20;;;;;;;25.85;9.75;;;;;;;;;;5111074;28;20426;-66
2023/12/12 09:29:06;;;;;;;20.45;8.43;;;;;;;;;;5111846;28;20548;-66
2023/12/12 09:31:51;;;;;;;22.83;8.35;;;;;;;;;;5114781;28;20541;-67
2023/12/12 09:34:37;;;;;;;20.88;7.65;;;;;;;;;;5114122;28;20019;-67
2023/12/12 09:37:23;;;;;;;21.40;8.80;;;;;;;;;;5113059;28;20492;-66
2023/12/12 09:40:12;;;;;;;22.55;9.02;;;;;;;;;;5114776;28;20028;-66
2023/12/12 09:43:00;;;;;;;22.13;8.57;;;;;;;;;;5099732;28;20027;-66
2023/12/12 09:45:46;;;;;;;24.90;9.30;;;;;;;;;;5093401;28;20448;-66
2023/12/12 09:48:33;;;;;;;25.58;9.18;;;;;;;;;;5094292;28;20016;-66
2023/12/12 09:51:19;;;;;;;23.52;9.82;;;;;;;;;;5080373;28;20016;-67
2023/12/12 09:54:07;;;;;;;23.30;8.93;;;;;;;;;;5110260;28;20480;-67
2023/12/12 09:56:54;;;;;;;22.92;9.18;;;;;;;;;;5115561;28;20027;-67
2023/12/12 09:59:39;;;;;;;22.25;8.40;;;;;;;;;;5098905;28;20020;-66
2023/12/12 10:02:35;;;;;;;26.10;9.10;;;;;;;;;;5114699;28;20027;-66
2023/12/12 10:05:21;;;;;;;22.60;8.45;;;;;;;;;;5115024;28;20032;-66
2023/12/12 10:08:08;;;;;;;24.75;8.85;;;;;;;;;;5094749;28;20029;-66
2023/12/12 10:10:53;;;;;;;23.70;9.02;;;;;;;;;;5095106;28;20103;-66
2023/12/12 10:13:48;;;;;;;23.25;8.88;;;;;;;;;;5099716;28;20031;-66
2023/12/12 10:16:34;;;;;;;20.02;9.05;;;;;;;;;;5114721;28;20027;-66
2023/12/12 10:19:19;;;;;;;23.83;8.57;;;;;;;;;;5114281;28;20066;-66
2023/12/12 10:22:06;;;;;;;25.00;10.13;;;;;;;;;;5103356;28;20024;-66
2023/12/12 10:24:52;;;;;;;22.30;9.32;;;;;;;;;;5077876;28;20027;-67
2023/12/12 10:27:42;;;;;;;22.10;8.40;;;;;;;;;;5086318;28;20032;-67
2023/12/12 10:30:28;;;;;;;27.25;9.27;;;;;;;;;;5106700;28;20024;-66
2023/12/12 10:33:15;;;;;;;18.15;8.60;;;;;;;;;;5094289;28;20030;-67
2023/12/12 10:36:03;;;;;;;22.83;7.57;;;;;;;;;;5081130;28;20020;-67
2023/12/12 10:38:48;;;;;;;19.02;9.75;;;;;;;;;;5093394;28;20020;-67
2023/12/12 10:41:34;;;;;;;18.40;7.88;;;;;;;;;;5081908;28;20035;-66
2023/12/12 10:44:21;;;;;;;20.63;8.55;;;;;;;;;;5112117;28;20032;-67
2023/12/12 10:47:08;;;;;;;16.30;6.88;;;;;;;;;;5114837;28;20027;-67
2023/12/12 10:49:55;;;;;;;21.23;8.65;;;;;;;;;;5099040;28;20023;-67
2023/12/12 10:52:43;;;;;;;20.23;8.65;;;;;;;;;;5098116;28;20541;-67
2023/12/12 10:55:29;;;;;;;21.08;8.30;;;;;;;;;;5106099;28;20023;-66
2023/12/12 10:58:14;;;;;;;19.08;8.35;;;;;;;;;;5113919;28;20012;-67
2023/12/12 11:01:02;;;;;;;22.98;8.82;;;;;;;;;;5092148;28;20027;-67
2023/12/12 11:03:48;;;;;;;18.23;8.23;;;;;;;;;;5096132;28;20024;-66
2023/12/12 11:06:34;;;;;;;23.70;9.55;;;;;;;;;;5097720;28;20103;-66
2023/12/12 11:09:19;;;;;;;17.17;7.35;;;;;;;;;;5099336;28;20024;-67
2023/12/12 11:12:05;;;;;;;19.83;8.43;;;;;;;;;;5081611;28;20063;-67
2023/12/12 11:14:52;;;;;;;19.63;8.40;;;;;;;;;;5078199;28;20485;-67
2023/12/12 11:17:37;;;;;;;21.92;9.43;;;;;;;;;;5094280;28;20031;-67
2023/12/12 11:20:24;;;;;;;23.88;10.10;;;;;;;;;;5099505;28;20081;-67
2023/12/12 11:23:10;;;;;;;20.75;8.93;;;;;;;;;;5103094;28;20027;-66
2023/12/12 11:25:55;;;;;;;22.92;9.43;;;;;;;;;;5093357;28;20103;-67
2023/12/12 11:28:42;;;;;;;19.05;8.73;;;;;;;;;;5081308;28;20024;-67
2023/12/12 11:31:28;;;;;;;17.73;7.65;;;;;;;;;;5091910;28;20051;-67
2023/12/12 11:34:14;;;;;;;19.52;8.05;;;;;;;;;;5082336;28;20019;-67
2023/12/12 11:37:00;;;;;;;20.98;8.40;;;;;;;;;;5113386;28;20031;-67
2023/12/12 11:39:51;;;;;;;19.08;8.70;;;;;;;;;;5112628;28;20100;-67
2023/12/12 11:42:37;;;;;;;23.23;8.50;;;;;;;;;;5113135;28;20032;-67
2023/12/12 11:45:33;;;;;;;20.83;7.68;;;;;;;;;;5097007;28;20102;-67
2023/12/12 11:48:18;;;;;;;15.02;7.53;;;;;;;;;;5092345;28;20052;-67
2023/12/12 11:51:33;;;;;;;17.13;8.02;;;;;;;;;;5092412;28;20016;-67
2023/12/12 11:54:21;;;;;;;23.02;7.78;;;;;;;;;;5092078;28;20052;-67
2023/12/12 11:57:08;;;;;;;23.48;8.43;;;;;;;;;;5077394;28;20202;-67
2023/12/12 11:59:53;;;;;;;16.60;6.47;;;;;;;;;;5092699;28;20507;-67
2023/12/12 12:02:40;;;;;;;15.20;6.93;;;;;;;;;;5095697;28;20501;-67
2023/12/12 12:05:26;;;;;;;18.33;7.05;;;;;;;;;;5111706;28;20030;-67
2023/12/12 12:08:12;;;;;;;21.83;7.90;;;;;;;;;;5112819;28;20471;-67
2023/12/12 12:10:57;;;;;;;19.15;7.25;;;;;;;;;;5112182;28;20091;-67
2023/12/12 12:13:43;;;;;;;20.08;7.03;;;;;;;;;;5111520;28;20377;-67
2023/12/12 12:16:29;;;;;;;17.95;7.05;;;;;;;;;;5110000;28;20027;-67
2023/12/12 12:19:29;;;;;;;21.85;8.10;;;;;;;;;;5097211;28;20023;-67
2023/12/12 12:22:14;;;;;;;19.15;6.90;;;;;;;;;;5093584;28;20027;-67
2023/12/12 12:25:00;;;;;;;17.63;7.75;;;;;;;;;;5108672;28;20023;-67
2023/12/12 12:27:53;;;;;;;19.55;7.78;;;;;;;;;;5097096;28;20112;-67
2023/12/12 12:30:46;;;;;;;20.05;7.03;;;;;;;;;;5092419;28;20107;-67
2023/12/12 12:33:40;;;;;;;19.45;8.52;;;;;;;;;;5077871;28;20478;-67
2023/12/12 12:36:38;;;;;;;16.83;7.10;;;;;;;;;;5098285;28;20024;-67
2023/12/12 12:39:24;;;;;;;18.38;7.25;;;;;;;;;;5090981;28;20044;-67
2023/12/12 12:42:10;;;;;;;16.50;7.10;;;;;;;;;;5091327;28;20032;-67
2023/12/12 12:44:55;;;;;;;17.13;7.10;;;;;;;;;;5091301;28;20020;-67
2023/12/12 12:47:42;;;;;;;17.08;7.50;;;;;;;;;;5091634;28;20027;-67
2023/12/12 12:50:28;;;;;;;13.80;6.25;;;;;;;;;;5110603;28;20110;-67
2023/12/12 12:53:14;;;;;;;11.45;4.72;;;;;;;;;;5111647;28;20515;-66
2023/12/12 12:55:59;;;;;;;9.57;4.57;;;;;;;;;;5112547;28;20110;-66
2023/12/12 12:58:45;;;;;;;14.45;4.18;;;;;;;;;;5097345;28;20023;-66
2023/12/12 13:01:31;;;;;;;6.82;3.60;;;;;;;;;;5111647;28;20032;-66
2023/12/12 13:04:18;;;;;;;9.20;4.20;;;;;;;;;;5110698;28;20028;-66
2023/12/12 13:07:05;;;;;;;8.85;4.22;;;;;;;;;;5112601;28;20511;-66
2023/12/12 13:09:51;;;;;;;12.73;4.65;;;;;;;;;;5115922;28;20032;-66
2023/12/12 13:12:38;;;;;;;10.63;4.68;;;;;;;;;;5093009;28;20043;-66
2023/12/12 13:15:24;;;;;;;8.00;4.57;;;;;;;;;;5099115;28;20494;-66
2023/12/12 13:18:10;;;;;;;9.52;5.43;;;;;;;;;;5115584;28;20023;-66
2023/12/12 13:20:55;;;;;;;10.80;5.03;;;;;;;;;;5114876;28;20455;-66
2023/12/12 13:23:41;;;;;;;13.25;5.80;;;;;;;;;;5115375;28;20027;-66
2023/12/12 13:26:27;;;;;;;15.15;5.97;;;;;;;;;;5114868;28;20023;-66
2023/12/12 13:29:12;;;;;;;15.18;6.68;;;;;;;;;;5103534;28;20503;-66
2023/12/12 13:31:58;;;;;;;15.20;6.32;;;;;;;;;;5114957;28;20076;-66
2023/12/12 13:34:45;;;;;;;12.20;6.22;;;;;;;;;;5116298;28;20023;-66
2023/12/12 13:37:31;;;;;;;14.20;7.00;;;;;;;;;;5115277;28;20080;-67
2023/12/12 13:40:16;;;;;;;13.35;5.68;;;;;;;;;;5113076;28;20024;-66
2023/12/12 13:43:02;;;;;;;10.98;5.70;;;;;;;;;;5110697;28;20107;-66
2023/12/12 13:45:48;;;;;;;14.57;5.85;;;;;;;;;;5094797;28;20020;-66
2023/12/12 13:48:34;;;;;;;16.38;6.93;;;;;;;;;;5079248;28;20032;-66
2023/12/12 13:51:19;;;;;;;12.30;6.13;;;;;;;;;;5096453;28;20103;-66
2023/12/12 13:54:05;;;;;;;16.85;6.95;;;;;;;;;;5114096;28;20058;-66
2023/12/12 13:56:52;;;;;;;15.38;6.70;;;;;;;;;;5099465;28;20128;-66
2023/12/12 13:59:38;;;;;;;11.52;5.65;;;;;;;;;;5094624;28;20028;-66
2023/12/12 14:02:24;;;;;;;18.42;6.10;;;;;;;;;;5103473;28;20492;-66
2023/12/12 14:05:10;;;;;;;12.20;5.57;;;;;;;;;;5094020;28;20020;-66
2023/12/12 14:07:56;;;;;;;15.75;6.93;;;;;;;;;;5090361;28;20027;-66
2023/12/12 14:10:42;;;;;;;11.88;6.88;;;;;;;;;;5092657;28;20056;-65
2023/12/12 14:13:27;;;;;;;14.18;6.30;;;;;;;;;;5102956;28;20031;-66
2023/12/12 14:16:13;;;;;;;12.45;6.32;;;;;;;;;;5097276;28;20524;-66
2023/12/12 14:18:59;;;;;;;13.23;5.53;;;;;;;;;;5102018;28;20450;-66
2023/12/12 14:21:49;;;;;;;12.23;6.05;;;;;;;;;;5104654;28;20015;-66
2023/12/12 14:24:35;;;;;;;13.63;6.00;;;;;;;;;;5102221;28;20501;-67
2023/12/12 14:27:20;;;;;;;11.35;5.18;;;;;;;;;;5103817;28;20061;-66
2023/12/12 14:30:07;;;;;;;14.63;6.40;;;;;;;;;;5114894;28;20046;-66
2023/12/12 14:32:59;;;;;;;15.70;6.28;;;;;;;;;;5100875;28;20039;-66
2023/12/12 14:35:45;;;;;;;14.10;5.43;;;;;;;;;;5099771;28;20024;-66
2023/12/12 14:38:31;;;;;;;16.95;5.97;;;;;;;;;;5114048;28;20493;-66
2023/12/12 14:41:17;;;;;;;14.43;5.65;;;;;;;;;;5113707;28;20400;-66
2023/12/12 14:44:03;;;;;;;15.77;6.68;;;;;;;;;;5114650;28;20019;-66
2023/12/12 14:46:48;;;;;;;18.13;7.15;;;;;;;;;;5115106;28;20374;-66
2023/12/12 14:49:34;;;;;;;14.25;5.90;;;;;;;;;;5114467;28;20106;-66
2023/12/12 14:52:20;;;;;;;14.35;5.65;;;;;;;;;;5114232;28;20046;-66
2023/12/12 14:55:06;;;;;;;14.85;6.65;;;;;;;;;;5100834;28;20019;-66
2023/12/12 14:57:52;;;;;;;17.42;7.53;;;;;;;;;;5114060;28;20072;-66
2023/12/12 15:00:37;;;;;;;15.63;7.03;;;;;;;;;;5115101;28;20016;-66
2023/12/12 15:03:23;;;;;;;13.55;6.60;;;;;;;;;;5103022;28;20031;-66
2023/12/12 15:06:09;;;;;;;16.23;6.30;;;;;;;;;;5113958;28;20020;-66
2023/12/12 15:08:55;;;;;;;14.95;7.03;;;;;;;;;;5100328;28;20020;-66
2023/12/12 15:11:40;;;;;;;16.70;6.70;;;;;;;;;;5103698;28;20023;-66
2023/12/12 15:14:26;;;;;;;14.68;6.72;;;;;;;;;;5113217;28;20023;-66
2023/12/12 15:17:12;;;;;;;13.73;6.07;;;;;;;;;;5103303;28;20408;-66
2023/12/12 15:19:57;;;;;;;15.98;6.40;;;;;;;;;;5107753;28;20016;-66
2023/12/12 15:22:43;;;;;;;18.65;7.15;;;;;;;;;;5112706;28;20077;-66
2023/12/12 15:25:28;;;;;;;14.07;6.68;;;;;;;;;;5100062;28;20104;-66
2023/12/12 15:28:14;;;;;;;18.63;7.85;;;;;;;;;;5112227;28;20602;-66
2023/12/12 15:31:01;;;;;;;14.80;6.78;;;;;;;;;;5097284;28;20028;-66
2023/12/12 15:33:46;;;;;;;15.02;7.15;;;;;;;;;;5111394;28;20023;-66
2023/12/12 15:36:32;;;;;;;17.73;7.50;;;;;;;;;;5112509;28;20026;-66
2023/12/12 15:39:17;;;;;;;18.50;7.45;;;;;;;;;;5112694;28;20026;-66
2023/12/12 15:42:03;;;;;;;15.57;7.07;;;;;;;;;;5112643;28;20089;-66
2023/12/12 15:44:49;;;;;;;17.50;8.15;;;;;;;;;;5113784;28;20053;-66
2023/12/12 15:47:35;;;;;;;14.20;6.57;;;;;;;;;;5098934;28;20027;-66
2023/12/12 15:50:20;;;;;;;16.08;7.07;;;;;;;;;;5097758;28;20030;-66
2023/12/12 15:53:06;;;;;;;18.42;7.50;;;;;;;;;;5112744;28;20051;-66
2023/12/12 15:55:52;;;;;;;15.68;6.95;;;;;;;;;;5112993;28;20019;-66
2023/12/12 15:58:39;;;;;;;20.35;8.00;;;;;;;;;;5112310;28;20023;-66
2023/12/12 16:01:25;;;;;;;18.40;7.45;;;;;;;;;;5098414;28;20085;-66
2023/12/12 16:04:11;;;;;;;16.35;6.78;;;;;;;;;;5112306;28;20035;-66
2023/12/12 16:06:57;;;;;;;16.13;6.93;;;;;;;;;;5097176;28;20503;-66
2023/12/12 16:09:42;;;;;;;19.23;8.00;;;;;;;;;;5111882;28;20392;-66
2023/12/12 16:12:28;;;;;;;14.93;6.57;;;;;;;;;;5112617;28;20019;-66
2023/12/12 16:15:14;;;;;;;16.42;7.65;;;;;;;;;;5112272;28;20077;-66
2023/12/12 16:18:00;;;;;;;17.60;6.47;;;;;;;;;;5112488;28;20484;-66
2023/12/12 16:20:45;;;;;;;17.27;7.43;;;;;;;;;;5112757;28;20024;-66
2023/12/12 16:23:31;;;;;;;17.15;7.53;;;;;;;;;;5111821;28;20581;-66